Time;durP1;ratioP1;P1;durP2;ratioP2;P2;SDS_P1;SDS_P2;PMS_P1;PMS_P2;Temp;Humidity;BMP_temperature;BMP_pressure;BME280_temperature;BME280_humidity;BME280_pressure;Samples;Min_cycle;Max_cycle;Signal;HPM_P1;HPM_P2
2023/05/08 00:00:12;;;;;;;3.58;2.70;;;;;;;15.63;77.87;96960.22;4918031;29;20059;-79
2023/05/08 00:02:41;;;;;;;3.42;3.13;;;;;;;15.58;77.82;96955.56;4918082;29;20139;-79
2023/05/08 00:05:09;;;;;;;4.63;3.47;;;;;;;15.56;78.05;96957.59;4917958;29;20540;-79
2023/05/08 00:07:37;;;;;;;3.75;2.85;;;;;;;15.56;78.42;96962.84;4918176;29;20052;-79
2023/05/08 00:10:06;;;;;;;4.25;3.13;;;;;;;15.54;78.33;96964.06;4917926;29;20056;-79
2023/05/08 00:12:36;;;;;;;3.75;3.45;;;;;;;15.52;78.20;96964.25;4917803;29;20115;-79
2023/05/08 00:15:05;;;;;;;4.07;3.78;;;;;;;15.50;78.58;96958.41;4917395;29;20048;-80
2023/05/08 00:17:32;;;;;;;5.68;3.60;;;;;;;15.49;78.61;96962.06;4917802;29;20131;-79
2023/05/08 00:20:01;;;;;;;3.67;3.38;;;;;;;15.48;78.66;96959.63;4917585;29;20476;-79
2023/05/08 00:22:28;;;;;;;5.28;3.55;;;;;;;15.46;78.63;96957.22;4917769;29;20483;-79
2023/05/08 00:24:56;;;;;;;3.75;3.45;;;;;;;15.44;78.50;96956.59;4917299;29;20050;-79
2023/05/08 00:27:23;;;;;;;3.45;3.25;;;;;;;15.41;78.75;96959.63;4917300;29;20465;-79
2023/05/08 00:29:52;;;;;;;3.55;3.30;;;;;;;15.39;78.40;96962.47;4917469;29;20135;-79
2023/05/08 00:32:20;;;;;;;3.67;3.38;;;;;;;15.40;78.38;96968.53;4917795;29;20114;-79
2023/05/08 00:34:48;;;;;;;5.68;3.40;;;;;;;15.40;78.27;96958.81;4917581;29;20048;-80
2023/05/08 00:37:16;;;;;;;4.43;3.78;;;;;;;15.42;78.32;96971.78;4917535;29;20401;-79
2023/05/08 00:39:43;;;;;;;3.38;3.08;;;;;;;15.44;78.41;96965.28;4917436;29;20052;-79
2023/05/08 00:42:11;;;;;;;3.83;3.53;;;;;;;15.45;78.08;96968.72;4917429;29;20062;-79
2023/05/08 00:44:40;;;;;;;4.22;3.83;;;;;;;15.44;78.36;96964.50;4916995;29;20493;-81
2023/05/08 00:47:09;;;;;;;4.65;3.83;;;;;;;15.45;78.59;96976.63;4916265;29;20059;-81
2023/05/08 00:49:36;;;;;;;3.78;3.53;;;;;;;15.45;78.32;96968.72;4916309;29;20520;-81
2023/05/08 00:52:07;;;;;;;5.25;3.72;;;;;;;15.44;78.56;96967.94;4915731;29;20052;-81
2023/05/08 00:54:35;;;;;;;3.85;3.55;;;;;;;15.44;78.41;96972.38;4915603;29;20562;-81
2023/05/08 00:57:06;;;;;;;7.18;3.63;;;;;;;15.41;78.48;96967.50;4916182;29;20432;-81
2023/05/08 00:59:35;;;;;;;3.88;3.55;;;;;;;15.42;78.54;96966.53;4916042;29;20058;-81
2023/05/08 01:02:03;;;;;;;4.10;3.70;;;;;;;15.41;78.64;96968.34;4916156;29;20143;-81
2023/05/08 01:04:34;;;;;;;3.03;2.67;;;;;;;15.44;80.10;96960.03;4915502;29;20142;-81
2023/05/08 01:07:02;;;;;;;3.95;3.65;;;;;;;15.46;78.92;96967.72;4916178;29;20150;-81
2023/05/08 01:09:30;;;;;;;4.80;3.70;;;;;;;15.47;78.44;96964.06;4915969;29;20052;-81
2023/05/08 01:12:10;;;;;;;4.28;3.28;;;;;;;15.47;78.80;96974.59;4916068;29;20044;-81
2023/05/08 01:14:51;;;;;;;4.60;3.50;;;;;;;15.47;78.74;96974.59;4915544;29;20048;-81
2023/05/08 01:17:29;;;;;;;6.15;4.05;;;;;;;15.47;78.48;96969.34;4915757;29;20059;-81
2023/05/08 01:20:09;;;;;;;4.65;4.25;;;;;;;15.48;78.49;96970.97;4916059;29;20056;-81
2023/05/08 01:23:08;;;;;;;4.60;4.20;;;;;;;15.47;78.86;96966.69;4916027;29;20048;-81
2023/05/08 01:26:11;;;;;;;4.38;3.97;;;;;;;15.45;78.86;96972.16;4915661;29;20055;-81
2023/05/08 01:29:01;;;;;;;4.80;4.40;;;;;;;15.44;78.77;96975.00;4916085;29;20048;-81
2023/05/08 01:31:47;;;;;;;5.30;4.80;;;;;;;15.40;78.54;96969.34;4915871;29;20500;-81
2023/05/08 01:34:23;;;;;;;5.03;4.53;;;;;;;15.40;78.59;96971.16;4915483;29;20064;-81
2023/05/08 01:36:54;;;;;;;5.00;4.50;;;;;;;15.39;78.12;96973.00;4916035;29;20051;-81
2023/05/08 01:39:32;;;;;;;5.15;4.38;;;;;;;15.38;78.70;96981.06;4915593;29;20048;-81
2023/05/08 01:42:04;;;;;;;3.42;3.13;;;;;;;15.46;81.10;96986.13;4915864;29;20048;-81
2023/05/08 01:44:37;;;;;;;4.63;4.10;;;;;;;15.50;79.85;96974.16;4915266;29;20419;-81
2023/05/08 01:47:07;;;;;;;5.15;4.60;;;;;;;15.53;79.06;96978.25;4915752;29;20460;-81
2023/05/08 01:49:40;;;;;;;5.13;4.30;;;;;;;15.52;78.63;96973.97;4915728;29;20059;-81
2023/05/08 01:52:13;;;;;;;4.93;4.47;;;;;;;15.51;78.29;96978.44;4915525;29;20052;-81
2023/05/08 01:54:47;;;;;;;5.38;4.57;;;;;;;15.49;78.13;96972.56;4915703;29;20052;-81
2023/05/08 01:57:16;;;;;;;5.60;4.57;;;;;;;15.45;78.26;96979.25;4915887;29;20056;-81
2023/05/08 01:59:46;;;;;;;5.57;5.07;;;;;;;15.41;78.42;96983.28;4915639;29;20111;-81
2023/05/08 02:02:14;;;;;;;5.20;4.68;;;;;;;15.40;78.47;96984.31;4915587;29;20508;-81
2023/05/08 02:04:44;;;;;;;6.75;4.60;;;;;;;15.36;78.85;96988.34;4917878;29;20044;-81
2023/05/08 02:07:12;;;;;;;5.78;5.03;;;;;;;15.34;79.11;96985.91;4918616;29;20075;-81
2023/05/08 02:09:42;;;;;;;5.53;5.03;;;;;;;15.33;79.17;96988.78;4918978;29;20065;-81
2023/05/08 02:12:13;;;;;;;5.25;4.75;;;;;;;15.34;79.34;96985.13;4919086;29;20144;-81
2023/05/08 02:14:42;;;;;;;5.63;5.13;;;;;;;15.32;79.18;96993.19;4918180;29;20143;-81
2023/05/08 02:17:12;;;;;;;5.40;4.93;;;;;;;15.32;79.28;96987.13;4918478;29;20052;-81
2023/05/08 02:19:41;;;;;;;5.78;4.63;;;;;;;15.35;80.27;96992.81;4918941;29;20555;-81
2023/05/08 02:22:10;;;;;;;8.52;4.90;;;;;;;15.36;78.97;96986.53;4918805;29;20397;-81
2023/05/08 02:24:38;;;;;;;5.70;4.82;;;;;;;15.35;78.52;96991.97;4921433;29;20058;-81
2023/05/08 02:27:08;;;;;;;5.65;5.15;;;;;;;15.33;77.99;96992.19;4923750;29;20048;-81
2023/05/08 02:29:37;;;;;;;7.10;6.35;;;;;;;15.32;78.03;96987.13;4924695;29;20048;-81
2023/05/08 02:32:07;;;;;;;7.00;6.30;;;;;;;15.34;78.52;96993.81;4920851;29;20062;-81
2023/05/08 02:34:36;;;;;;;8.57;6.63;;;;;;;15.35;77.66;96981.47;4918444;29;20048;-81
2023/05/08 02:37:14;;;;;;;6.85;6.25;;;;;;;15.32;77.42;96987.94;4918414;29;20497;-81
2023/05/08 02:39:45;;;;;;;7.57;6.30;;;;;;;15.28;77.20;96989.34;4918260;29;20048;-81
2023/05/08 02:42:13;;;;;;;6.05;5.45;;;;;;;15.27;77.66;96992.19;4918209;29;20115;-81
2023/05/08 02:44:40;;;;;;;9.05;6.72;;;;;;;15.28;77.45;96991.97;4917830;29;20052;-81
2023/05/08 02:47:18;;;;;;;7.32;6.35;;;;;;;15.30;77.57;96983.91;4918092;29;20579;-81
2023/05/08 02:49:51;;;;;;;7.78;6.53;;;;;;;15.31;77.60;96993.41;4918249;29;20080;-81
2023/05/08 02:52:29;;;;;;;7.60;6.60;;;;;;;15.32;78.08;96990.56;4927197;29;20036;-81
2023/05/08 02:55:02;;;;;;;7.38;5.63;;;;;;;15.34;77.72;96991.16;4939459;29;20056;-82
2023/05/08 02:57:37;;;;;;;6.05;4.88;;;;;;;15.38;78.60;96994.22;4934010;29;20056;-81
2023/05/08 03:00:12;;;;;;;6.65;5.50;;;;;;;15.47;79.93;96994.81;4919501;29;20052;-81
2023/05/08 03:02:43;;;;;;;7.10;6.40;;;;;;;15.48;77.92;96993.78;4918849;29;20568;-81
2023/05/08 03:05:16;;;;;;;5.82;5.32;;;;;;;15.52;78.81;96990.56;4984877;23;20058;-75
2023/05/08 03:07:47;;;;;;;7.07;6.38;;;;;;;15.52;78.18;96993.19;4975554;28;20046;-75
2023/05/08 03:10:15;;;;;;;9.23;6.90;;;;;;;15.53;77.62;96992.19;4975383;28;20055;-76
2023/05/08 03:12:46;;;;;;;7.60;6.88;;;;;;;15.53;77.11;96994.03;4975529;28;20058;-75
2023/05/08 03:15:22;;;;;;;7.00;6.38;;;;;;;15.49;77.21;96990.16;4975109;28;20137;-75
2023/05/08 03:17:54;;;;;;;8.43;7.43;;;;;;;15.47;77.49;96990.38;4960288;28;20114;-74
2023/05/08 03:20:24;;;;;;;8.32;7.55;;;;;;;15.44;77.59;96985.53;4957116;28;20051;-75
2023/05/08 03:22:55;;;;;;;8.50;7.55;;;;;;;15.40;77.75;96989.56;4966065;28;20053;-74
2023/05/08 03:25:24;;;;;;;7.35;6.60;;;;;;;15.41;78.82;96986.75;4980521;28;20056;-74
2023/05/08 03:27:53;;;;;;;9.55;7.82;;;;;;;15.43;77.85;96989.16;4975101;28;20053;-75
2023/05/08 03:30:21;;;;;;;8.73;7.63;;;;;;;15.44;77.56;96990.78;4969685;28;20134;-75
2023/05/08 03:32:50;;;;;;;9.18;8.05;;;;;;;15.43;77.16;96994.41;4981602;28;20348;-75
2023/05/08 03:35:19;;;;;;;8.25;7.35;;;;;;;15.47;77.65;97000.09;4993685;28;20046;-74
2023/05/08 03:37:47;;;;;;;9.30;7.75;;;;;;;15.49;77.12;96993.59;4994203;28;20074;-75
2023/05/08 03:40:16;;;;;;;10.07;9.00;;;;;;;15.48;76.33;96986.75;4993048;28;20074;-75
2023/05/08 03:42:44;;;;;;;9.80;8.32;;;;;;;15.45;75.73;96995.00;4991867;28;20093;-75
2023/05/08 03:45:14;;;;;;;10.63;8.25;;;;;;;15.37;75.56;96990.78;4974602;28;20130;-74
2023/05/08 03:47:43;;;;;;;10.77;9.45;;;;;;;15.33;75.61;96994.03;4959988;28;20047;-75
2023/05/08 03:50:11;;;;;;;10.20;9.02;;;;;;;15.29;75.02;97000.69;4974349;28;20182;-75
2023/05/08 03:52:38;;;;;;;10.75;9.02;;;;;;;15.21;74.70;96997.22;4979371;28;20051;-75
2023/05/08 03:55:08;;;;;;;10.52;9.35;;;;;;;15.14;75.04;97004.31;4968738;28;20061;-74
2023/05/08 03:57:44;;;;;;;9.48;8.20;;;;;;;15.13;75.74;97007.94;4974011;28;20047;-75
2023/05/08 04:00:19;;;;;;;10.52;9.27;;;;;;;15.18;75.19;97005.53;4973393;28;20506;-74
2023/05/08 04:02:52;;;;;;;10.23;8.93;;;;;;;15.21;75.74;97010.38;4957610;28;20129;-75
2023/05/08 04:05:24;;;;;;;10.60;9.50;;;;;;;15.23;75.44;97005.72;4955771;29;20093;-74
2023/05/08 04:07:56;;;;;;;10.77;9.68;;;;;;;15.29;75.88;97008.56;4955636;28;20400;-77
2023/05/08 04:10:29;;;;;;;10.60;9.43;;;;;;;15.33;75.48;97009.78;4955714;28;20534;-74
2023/05/08 04:13:06;;;;;;;;;;;;;;;15.35;76.17;97013.00;4962935;28;20049;-75
2023/05/08 04:15:39;;;;;;;11.68;9.95;;;;;;;15.33;74.20;97015.84;4970148;28;20287;-74
2023/05/08 04:18:09;;;;;;;11.70;10.27;;;;;;;15.29;74.16;97021.72;4958130;28;20058;-74
2023/05/08 04:20:40;;;;;;;12.30;11.00;;;;;;;15.21;73.91;97018.25;4974346;28;20403;-74
2023/05/08 04:23:09;;;;;;;13.27;11.13;;;;;;;15.15;73.92;97019.06;4966009;28;20089;-74
2023/05/08 04:25:38;;;;;;;11.95;9.98;;;;;;;15.12;73.96;97023.91;4954530;28;20058;-74
2023/05/08 04:28:08;;;;;;;13.95;10.60;;;;;;;15.08;73.53;97020.88;4958836;28;20058;-74
2023/05/08 04:30:36;;;;;;;13.27;10.35;;;;;;;15.02;73.69;97029.53;4958247;28;20130;-74
2023/05/08 04:33:04;;;;;;;11.38;10.10;;;;;;;14.99;74.11;97030.75;4967081;28;20051;-74
2023/05/08 04:35:33;;;;;;;12.70;10.27;;;;;;;14.99;74.16;97024.69;4954589;29;20059;-74
2023/05/08 04:38:02;;;;;;;12.77;10.35;;;;;;;15.01;74.01;97027.94;4974931;28;20133;-74
2023/05/08 04:40:29;;;;;;;12.48;10.88;;;;;;;15.03;74.24;97028.53;4994599;28;20050;-74
2023/05/08 04:42:57;;;;;;;12.52;11.05;;;;;;;15.04;73.74;97030.97;4985002;28;20047;-74
2023/05/08 04:45:26;;;;;;;14.38;11.02;;;;;;;15.02;73.82;97035.63;4958022;28;20059;-75
2023/05/08 04:47:53;;;;;;;12.60;11.20;;;;;;;15.01;73.59;97038.44;4972608;28;20053;-74
2023/05/08 04:50:21;;;;;;;12.52;11.00;;;;;;;14.93;73.43;97044.66;4973755;28;20495;-74
2023/05/08 04:52:49;;;;;;;12.63;10.82;;;;;;;14.88;73.66;97046.28;4973285;28;20051;-74
2023/05/08 04:55:16;;;;;;;11.05;9.80;;;;;;;14.86;73.61;97046.47;4955486;28;20126;-74
2023/05/08 04:57:44;;;;;;;12.82;9.65;;;;;;;14.85;73.44;97042.25;4963096;28;20055;-74
2023/05/08 05:00:13;;;;;;;13.23;11.18;;;;;;;14.86;73.38;97050.94;4971243;28;20664;-74
2023/05/08 05:02:42;;;;;;;14.68;10.57;;;;;;;14.82;73.30;97053.97;4972634;28;20426;-76
2023/05/08 05:05:10;;;;;;;13.48;10.20;;;;;;;14.85;75.16;97055.38;4955964;28;20058;-74
2023/05/08 05:07:38;;;;;;;10.80;9.70;;;;;;;14.91;76.36;97046.72;4990406;28;20057;-74
2023/05/08 05:10:06;;;;;;;11.07;8.80;;;;;;;15.00;75.47;97052.59;4962925;28;20047;-74
2023/05/08 05:12:33;;;;;;;13.68;10.40;;;;;;;15.02;74.52;97055.81;4972936;28;20051;-74
2023/05/08 05:15:01;;;;;;;12.43;10.13;;;;;;;15.03;73.67;97062.69;4972398;28;20054;-74
2023/05/08 05:17:30;;;;;;;16.05;10.23;;;;;;;14.98;73.29;97059.88;4956570;28;20134;-74
2023/05/08 05:19:59;;;;;;;11.13;9.63;;;;;;;14.91;72.90;97065.09;4972786;28;20106;-75
2023/05/08 05:22:27;;;;;;;13.07;10.98;;;;;;;14.88;73.24;97064.69;4959928;28;20503;-75
2023/05/08 05:24:55;;;;;;;10.95;9.48;;;;;;;14.92;74.24;97071.16;4954829;28;20059;-74
2023/05/08 05:27:23;;;;;;;12.25;10.18;;;;;;;14.94;73.33;97058.63;4954677;29;20051;-75
2023/05/08 05:29:51;;;;;;;10.45;9.35;;;;;;;14.97;73.34;97063.47;4959166;28;20051;-75
2023/05/08 05:32:19;;;;;;;12.85;9.65;;;;;;;14.99;73.60;97057.03;4958608;28;20043;-74
2023/05/08 05:34:47;;;;;;;12.32;9.55;;;;;;;14.99;72.78;97071.97;4953455;28;20059;-74
2023/05/08 05:37:15;;;;;;;11.43;10.25;;;;;;;15.02;75.16;97072.41;4958039;28;20051;-74
2023/05/08 05:39:43;;;;;;;12.45;10.32;;;;;;;15.05;73.54;97079.06;4973289;28;20503;-75
2023/05/08 05:42:11;;;;;;;15.38;11.23;;;;;;;15.08;73.10;97072.59;4957255;28;20051;-75
2023/05/08 05:44:38;;;;;;;10.63;9.52;;;;;;;15.12;72.78;97082.53;4956916;28;20655;-75
2023/05/08 05:47:08;;;;;;;12.35;9.57;;;;;;;15.15;74.01;97076.06;4957644;28;20054;-75
2023/05/08 05:49:38;;;;;;;10.63;9.00;;;;;;;15.14;73.35;97075.25;4970169;28;20055;-75
2023/05/08 05:52:06;;;;;;;11.88;10.02;;;;;;;15.18;73.17;97075.69;4974349;28;20507;-75
2023/05/08 05:54:34;;;;;;;11.15;9.95;;;;;;;15.22;73.99;97080.31;4956906;29;20082;-75
2023/05/08 05:57:02;;;;;;;10.95;9.82;;;;;;;15.20;72.32;97079.72;4969147;28;20047;-74
2023/05/08 05:59:30;;;;;;;11.25;10.05;;;;;;;15.21;74.32;97080.53;4956853;28;20051;-75
2023/05/08 06:01:57;;;;;;;11.48;10.13;;;;;;;15.21;73.00;97083.94;4970412;28;20096;-76
2023/05/08 06:04:25;;;;;;;9.80;8.80;;;;;;;15.20;72.92;97087.59;4972178;28;20550;-77
2023/05/08 06:06:53;;;;;;;11.52;9.88;;;;;;;15.17;72.40;97084.53;4973316;28;20110;-75
2023/05/08 06:09:20;;;;;;;10.50;9.48;;;;;;;15.12;71.50;97087.78;4956857;28;20043;-74
2023/05/08 06:11:49;;;;;;;11.75;10.55;;;;;;;15.05;71.45;97081.69;4965631;28;20055;-74
2023/05/08 06:14:16;;;;;;;12.10;10.07;;;;;;;15.00;71.98;97084.13;4956576;28;20055;-75
2023/05/08 06:16:44;;;;;;;14.30;11.15;;;;;;;14.99;72.36;97087.75;4967332;28;20053;-74
2023/05/08 06:19:12;;;;;;;10.80;9.70;;;;;;;15.02;72.15;97092.59;4973412;28;20050;-74
2023/05/08 06:21:39;;;;;;;10.60;9.43;;;;;;;14.97;71.70;97087.94;4971482;28;20046;-74
2023/05/08 06:24:08;;;;;;;11.18;9.68;;;;;;;14.99;73.01;97085.91;4965069;28;20518;-76
2023/05/08 06:26:35;;;;;;;13.38;10.23;;;;;;;15.02;72.16;97084.72;4965170;28;20059;-77
2023/05/08 06:29:04;;;;;;;9.68;8.68;;;;;;;15.02;72.18;97087.34;4984532;28;20114;-76
2023/05/08 06:31:32;;;;;;;10.93;9.75;;;;;;;15.01;71.73;97091.78;4978487;28;20063;-76
2023/05/08 06:33:59;;;;;;;9.82;8.48;;;;;;;15.01;72.36;97094.41;4976349;28;20113;-76
2023/05/08 06:36:27;;;;;;;10.55;8.93;;;;;;;15.01;71.64;97085.72;4973606;28;20068;-76
2023/05/08 06:38:55;;;;;;;10.85;9.02;;;;;;;15.04;72.94;97093.19;4990767;28;20042;-76
2023/05/08 06:41:22;;;;;;;12.68;9.48;;;;;;;15.05;71.78;97097.47;4988273;28;20053;-76
2023/05/08 06:43:50;;;;;;;9.88;8.80;;;;;;;15.06;71.09;97098.28;4975546;28;20545;-76
2023/05/08 06:46:19;;;;;;;11.88;9.48;;;;;;;15.09;71.61;97096.06;4966090;28;20058;-78
2023/05/08 06:48:47;;;;;;;11.75;9.43;;;;;;;15.13;71.77;97099.09;4967501;28;20051;-76
2023/05/08 06:51:15;;;;;;;11.05;8.73;;;;;;;15.14;71.30;97098.91;4967238;28;20061;-78
2023/05/08 06:53:42;;;;;;;10.98;9.85;;;;;;;15.18;71.06;97100.13;4961397;28;20120;-76
2023/05/08 06:56:10;;;;;;;10.80;9.70;;;;;;;15.22;70.61;97101.34;4960206;28;20540;-76
2023/05/08 06:58:37;;;;;;;10.68;9.57;;;;;;;15.25;70.89;97097.50;4976824;28;20046;-76
2023/05/08 07:01:05;;;;;;;10.65;9.65;;;;;;;15.30;70.95;97096.91;4972394;28;20699;-76
2023/05/08 07:03:34;;;;;;;10.35;9.20;;;;;;;15.33;71.58;97091.28;4975479;28;21726;-76
2023/05/08 07:06:02;;;;;;;11.32;9.25;;;;;;;15.39;73.62;97099.16;4963633;28;20623;-76
2023/05/08 07:08:31;;;;;;;10.82;9.73;;;;;;;15.45;71.63;97097.53;4958572;28;20138;-76
2023/05/08 07:10:58;;;;;;;10.52;9.52;;;;;;;15.52;72.16;97095.72;4973765;28;20052;-75
2023/05/08 07:13:26;;;;;;;9.85;8.90;;;;;;;15.54;71.09;97096.34;4974069;28;20050;-76
2023/05/08 07:15:54;;;;;;;10.50;9.50;;;;;;;15.54;71.44;97093.69;4969051;28;20047;-76
2023/05/08 07:18:21;;;;;;;11.40;9.80;;;;;;;15.64;72.88;97101.22;4975147;29;20074;-76
2023/05/08 07:20:51;;;;;;;10.20;9.00;;;;;;;15.69;71.10;97097.97;4976584;28;20107;-76
2023/05/08 07:23:18;;;;;;;10.55;9.48;;;;;;;15.73;71.95;97099.22;4976004;28;20085;-76
2023/05/08 07:25:46;;;;;;;12.05;10.02;;;;;;;15.77;70.76;97101.25;4966019;28;20082;-76
2023/05/08 07:28:13;;;;;;;10.93;9.77;;;;;;;15.84;70.73;97103.88;4958960;29;20070;-76
2023/05/08 07:30:41;;;;;;;10.77;9.68;;;;;;;15.86;70.14;97107.13;4961828;28;20554;-76
2023/05/08 07:33:08;;;;;;;9.57;8.57;;;;;;;15.90;71.43;97107.53;4969183;28;20063;-76
2023/05/08 07:35:38;;;;;;;10.77;9.68;;;;;;;15.92;70.32;97102.84;4958855;28;20159;-76
2023/05/08 07:38:07;;;;;;;12.70;9.55;;;;;;;15.92;70.19;97108.94;4975196;28;20089;-76
2023/05/08 07:40:35;;;;;;;11.15;10.02;;;;;;;15.90;69.66;97115.44;4974675;28;20125;-76
2023/05/08 07:43:02;;;;;;;12.40;10.32;;;;;;;15.87;71.48;97113.97;4966112;28;20057;-76
2023/05/08 07:45:30;;;;;;;10.32;9.20;;;;;;;15.84;69.50;97115.19;4964591;28;20053;-76
2023/05/08 07:47:58;;;;;;;10.82;9.77;;;;;;;15.75;69.31;97116.41;4972709;28;20047;-76
2023/05/08 07:50:26;;;;;;;14.18;9.93;;;;;;;15.71;68.87;97117.81;4973198;28;20047;-76
2023/05/08 07:52:54;;;;;;;11.50;9.82;;;;;;;15.66;69.10;97115.78;4964847;28;20045;-76
2023/05/08 07:55:23;;;;;;;13.70;10.52;;;;;;;15.66;69.13;97117.59;4973244;28;20525;-76
2023/05/08 07:57:50;;;;;;;11.38;9.13;;;;;;;15.65;69.35;97115.97;4971468;28;20069;-75
2023/05/08 08:00:18;;;;;;;16.38;9.23;;;;;;;15.69;69.22;97111.13;4969886;28;20062;-75
2023/05/08 08:02:46;;;;;;;11.23;9.38;;;;;;;15.70;69.28;97115.38;4954679;28;20507;-76
2023/05/08 08:05:14;;;;;;;10.48;8.98;;;;;;;15.71;69.02;97111.75;4954523;28;20055;-76
2023/05/08 08:07:42;;;;;;;14.55;9.90;;;;;;;15.70;69.13;97113.56;4956025;28;20055;-75
2023/05/08 08:10:10;;;;;;;10.77;9.57;;;;;;;15.70;69.81;97115.38;4954784;28;20426;-75
2023/05/08 08:12:39;;;;;;;12.32;10.18;;;;;;;15.72;69.41;97124.72;4962685;28;20480;-75
2023/05/08 08:15:08;;;;;;;14.25;10.65;;;;;;;15.72;69.24;97118.63;4955776;28;20058;-75
2023/05/08 08:17:36;;;;;;;12.20;10.27;;;;;;;15.68;69.50;97117.38;4954654;28;20058;-76
2023/05/08 08:20:05;;;;;;;10.88;9.77;;;;;;;15.65;69.93;97122.06;4956902;29;20054;-76
2023/05/08 08:22:32;;;;;;;11.48;10.38;;;;;;;15.68;69.60;97120.84;4969002;28;20115;-77
2023/05/08 08:25:00;;;;;;;11.85;10.65;;;;;;;15.66;70.09;97115.78;4971173;28;20051;-75
2023/05/08 08:27:27;;;;;;;15.95;10.98;;;;;;;15.70;69.93;97125.88;4969133;28;20054;-77
2023/05/08 08:29:56;;;;;;;11.07;9.77;;;;;;;15.74;71.06;97121.88;4974047;28;20053;-76
2023/05/08 08:32:43;;;;;;;13.63;10.23;;;;;;;15.78;70.15;97128.34;4955006;28;20051;-75
2023/05/08 08:35:12;;;;;;;12.63;10.15;;;;;;;15.79;69.63;97119.47;4954488;28;20053;-76
2023/05/08 08:37:40;;;;;;;13.48;10.57;;;;;;;15.78;69.33;97116.00;4955548;28;20126;-76
2023/05/08 08:40:08;;;;;;;12.45;10.80;;;;;;;15.74;69.29;97132.41;4959876;28;20053;-76
2023/05/08 08:42:36;;;;;;;11.85;10.00;;;;;;;15.67;69.87;97127.09;4961460;28;20529;-75
2023/05/08 08:45:06;;;;;;;11.68;10.48;;;;;;;15.67;70.02;97132.34;4968128;28;20077;-76
2023/05/08 08:47:37;;;;;;;12.93;10.88;;;;;;;15.69;70.48;97124.28;4970590;28;20074;-76
2023/05/08 08:50:08;;;;;;;13.60;10.73;;;;;;;15.69;69.61;97130.34;4971856;28;20110;-76
2023/05/08 08:52:43;;;;;;;12.40;11.07;;;;;;;15.67;70.25;97127.09;4969581;28;20128;-76
2023/05/08 08:55:15;;;;;;;12.50;10.82;;;;;;;15.63;70.46;97120.63;4972915;28;20050;-76
2023/05/08 08:57:52;;;;;;;12.23;10.93;;;;;;;15.61;70.48;97131.34;4961820;28;20050;-76
2023/05/08 09:00:23;;;;;;;13.77;11.73;;;;;;;15.61;70.79;97123.47;4972975;28;20083;-76
2023/05/08 09:02:51;;;;;;;14.73;10.45;;;;;;;15.63;71.13;97131.97;4968787;28;20051;-76
2023/05/08 09:05:22;;;;;;;17.50;12.13;;;;;;;15.66;71.24;97128.13;4953969;28;20051;-76
2023/05/08 09:07:53;;;;;;;14.93;12.20;;;;;;;15.66;70.91;97131.56;4953807;28;20134;-76
2023/05/08 09:10:22;;;;;;;14.27;11.27;;;;;;;15.65;71.20;97129.94;4960007;28;20110;-76
2023/05/08 09:12:50;;;;;;;20.85;12.45;;;;;;;15.64;71.35;97125.69;4956583;28;20083;-75
2023/05/08 09:15:18;;;;;;;15.30;10.57;;;;;;;15.66;72.00;97136.81;4972399;28;20525;-76
2023/05/08 09:17:47;;;;;;;15.43;11.40;;;;;;;15.68;71.92;97127.91;4975562;28;20143;-76
2023/05/08 09:20:15;;;;;;;13.30;11.90;;;;;;;15.71;71.31;97138.03;4976893;28;20082;-76
2023/05/08 09:22:43;;;;;;;15.38;11.77;;;;;;;15.69;71.60;97143.50;4971201;28;20049;-76
2023/05/08 09:25:11;;;;;;;14.13;11.18;;;;;;;15.68;71.85;97139.25;4968978;28;20069;-76
2023/05/08 09:27:39;;;;;;;15.88;11.18;;;;;;;15.69;72.18;97146.13;4962220;28;20046;-76
2023/05/08 09:30:08;;;;;;;13.23;10.38;;;;;;;15.69;71.79;97142.69;4976752;28;20055;-76
2023/05/08 09:32:37;;;;;;;18.25;11.45;;;;;;;15.70;71.98;97157.44;4964149;28;20053;-76
2023/05/08 09:35:08;;;;;;;13.27;10.52;;;;;;;15.71;71.69;97143.28;4974614;28;20086;-76
2023/05/08 09:37:38;;;;;;;13.13;11.65;;;;;;;15.68;71.29;97146.31;4972790;28;20047;-76
2023/05/08 09:40:17;;;;;;;11.07;9.93;;;;;;;15.66;72.44;97149.97;4967977;28;20059;-76
2023/05/08 09:42:45;;;;;;;13.45;10.18;;;;;;;15.68;71.30;97149.78;4975216;28;20051;-75
2023/05/08 09:45:26;;;;;;;15.65;10.98;;;;;;;15.70;71.99;97158.28;4975340;28;20051;-74
2023/05/08 09:47:54;;;;;;;13.68;10.20;;;;;;;15.73;71.76;97151.84;4959578;28;20673;-75
2023/05/08 09:50:23;;;;;;;11.60;10.25;;;;;;;15.78;71.73;97154.66;4975070;28;20117;-75
2023/05/08 09:52:50;;;;;;;13.07;10.30;;;;;;;15.81;71.77;97162.16;4975845;28;20042;-75
2023/05/08 09:55:18;;;;;;;9.75;8.55;;;;;;;15.85;73.44;97164.19;4971361;28;20054;-75
2023/05/08 09:57:54;;;;;;;11.73;10.52;;;;;;;15.90;72.20;97171.47;4973460;28;20050;-74
2023/05/08 10:00:23;;;;;;;11.77;10.43;;;;;;;15.88;71.41;97167.44;4963498;28;20065;-75
2023/05/08 10:02:56;;;;;;;11.77;9.75;;;;;;;15.85;71.92;97171.25;4966650;28;20059;-75
2023/05/08 10:05:28;;;;;;;11.52;10.32;;;;;;;15.85;72.00;97166.00;4956491;29;20094;-75
2023/05/08 10:07:56;;;;;;;;;;;;;;;15.86;71.83;97170.25;4975136;28;20065;-76
2023/05/08 10:10:26;;;;;;;12.20;9.80;;;;;;;15.85;71.86;97166.00;4976035;28;19942;-74
2023/05/08 10:12:55;;;;;;;10.98;9.88;;;;;;;15.88;73.04;97170.88;4965558;28;20094;-75
2023/05/08 10:15:24;;;;;;;9.35;8.45;;;;;;;15.95;74.17;97171.66;4957981;28;20047;-75
2023/05/08 10:17:55;;;;;;;12.23;9.75;;;;;;;16.05;73.87;97177.34;4969860;28;20049;-74
2023/05/08 10:20:27;;;;;;;10.05;8.75;;;;;;;16.10;71.92;97179.38;4959580;28;20174;-74
2023/05/08 10:22:56;;;;;;;;;;;;;;;16.13;71.21;97175.53;4956842;29;20114;-74
2023/05/08 10:25:25;;;;;;;9.82;8.65;;;;;;;16.05;71.36;97177.34;4960245;28;19927;-75
2023/05/08 10:27:59;;;;;;;12.70;10.00;;;;;;;16.00;71.04;97173.69;4975780;28;20054;-74
2023/05/08 10:30:27;;;;;;;9.52;8.40;;;;;;;15.97;71.74;97174.91;4971052;28;20400;-74
2023/05/08 10:32:58;;;;;;;10.27;9.32;;;;;;;15.97;71.12;97174.91;4956390;29;20051;-74
2023/05/08 10:35:27;;;;;;;9.82;8.65;;;;;;;16.00;71.74;97173.69;4957297;28;20059;-75
2023/05/08 10:37:56;;;;;;;12.15;9.98;;;;;;;16.03;71.62;97165.41;4962846;28;20062;-76
2023/05/08 10:40:24;;;;;;;13.93;10.43;;;;;;;16.06;72.15;97168.44;4963267;28;20047;-74
2023/05/08 10:42:52;;;;;;;11.82;10.07;;;;;;;16.08;71.75;97168.25;4975014;28;20054;-75
2023/05/08 10:45:19;;;;;;;8.70;7.25;;;;;;;16.07;72.14;97169.25;4973338;28;20129;-75
2023/05/08 10:47:57;;;;;;;12.60;8.48;;;;;;;16.05;71.60;97172.09;4956977;28;20078;-76
2023/05/08 10:50:42;;;;;;;9.18;8.27;;;;;;;16.00;70.69;97174.50;4956654;28;20043;-76
2023/05/08 10:53:16;;;;;;;20.45;7.53;;;;;;;16.01;71.22;97165.59;4966396;28;20054;-76
2023/05/08 10:55:47;;;;;;;8.57;7.72;;;;;;;16.09;70.44;97161.94;4974657;28;20570;-75
2023/05/08 10:58:28;;;;;;;8.30;7.50;;;;;;;16.21;70.28;97160.34;4972286;28;20054;-75
2023/05/08 11:01:15;;;;;;;7.50;6.80;;;;;;;16.35;70.09;97161.13;4960965;28;20082;-75
2023/05/08 11:03:49;;;;;;;7.97;7.18;;;;;;;16.42;69.97;97159.31;4967865;28;20059;-76
2023/05/08 11:06:42;;;;;;;7.63;6.93;;;;;;;16.45;69.97;97160.72;4973778;28;20058;-75
2023/05/08 11:09:15;;;;;;;10.23;7.30;;;;;;;16.49;69.66;97161.94;4957578;28;20097;-75
2023/05/08 11:12:13;;;;;;;8.82;7.30;;;;;;;16.49;69.17;97159.31;4969339;28;20053;-75
2023/05/08 11:14:42;;;;;;;8.05;6.80;;;;;;;16.46;69.56;97152.63;4957649;28;20047;-75
2023/05/08 11:17:10;;;;;;;9.02;8.13;;;;;;;16.49;70.18;97161.94;4966571;28;20196;-75
2023/05/08 11:19:38;;;;;;;8.68;7.25;;;;;;;16.59;70.72;97166.75;4960504;28;20051;-75
2023/05/08 11:22:21;;;;;;;8.45;7.55;;;;;;;16.73;70.26;97168.38;4970926;28;20085;-75
2023/05/08 11:24:52;;;;;;;11.57;7.78;;;;;;;16.77;69.08;97161.66;4958199;29;20540;-75
2023/05/08 11:27:35;;;;;;;7.18;6.57;;;;;;;16.77;68.48;97161.66;4963965;28;20051;-75
2023/05/08 11:30:19;;;;;;;8.30;7.40;;;;;;;16.76;67.90;97162.66;4975104;28;20051;-75
2023/05/08 11:33:15;;;;;;;8.05;7.25;;;;;;;16.73;68.95;97160.47;4957743;28;20134;-75
2023/05/08 11:35:54;;;;;;;8.45;7.28;;;;;;;16.80;68.87;97165.75;4968567;28;20130;-75
2023/05/08 11:38:30;;;;;;;8.95;7.75;;;;;;;16.86;67.84;97157.81;4972253;28;20086;-75
2023/05/08 11:41:00;;;;;;;9.68;7.63;;;;;;;16.84;67.68;97149.31;4973949;28;20042;-75